Latest Coastal Weather Observations for Flinders Island Airport

IDV60701

Issued at 3:11 am EST Wednesday 31 August 2016 (issued every 10 minutes, with the page automatically refreshed every 10 minutes)

About coastal observations | Map of coastal stations | Coastal observations for VIC | Marine services | Other Formats
Station Details ID: 099005 Name: FLINDERS ISLAND AIRPORT Lat: -40.09 Lon: 148.00 Height: 9.0 m
Data from the previous 72 hours. | See also: Recent months at Flinders Island Airport
Date/Time
EST
Temp
°C
Wind Pressure Rain since
9am
mm
Weather Cloud Vis
km
Sea
Height
m
Swell
Dir  Spd
kts
Gust
kts
hPa Trend Height
m
Period
s
Dir
31/03:00am 12.5 NNE 13 18 1012.1 - 3.6 Rain Cloudy 6 - - - -
31/02:30am 12.6 NNE 15 18 1012.7 - 2.6 - Cloudy 9 - - - -
31/02:00am 12.6 NNE 16 22 1013.0 - 1.8 - Cloudy 10 - - - -
31/01:30am 13.1 NNE 13 17 1013.5 - 1.2 - Partly cloudy 10 - - - -
31/01:00am 13.3 NNE 11 15 1013.7 - 0.8 - Partly cloudy 10 - - - -
31/12:30am 13.4 NNE 11 16 1014.2 - 0.6 - Partly cloudy 10 - - - -
31/12:00am 13.0 NNE 7 9 1014.7 - 0.4 Recent precip. Cloudy 10 - - - -
 
Date/Time
EST
Temp
°C
Wind Pressure Rain since
9am
mm
Weather Cloud Vis
km
Sea
Height
m
Swell
Dir  Spd
kts
Gust
kts
hPa Trend Height
m
Period
s
Dir
30/11:30pm 13.9 NNE 12 17 1014.9 - 0.2 - Cloudy 10 - - - -
30/11:00pm 13.0 NE 8 9 1015.1 - 0.2 - Cloudy 10 - - - -
30/10:30pm 13.1 ENE 6 9 1015.3 - 0.0 - Cloudy 10 - - - -
30/10:00pm 13.7 NNE 10 14 1015.8 - 0.0 - Cloudy 10 - - - -
30/09:30pm 13.7 NNE 12 16 1015.9 - 0.0 - Cloudy 10 - - - -
30/09:00pm 13.4 NNE 11 14 1016.1 - 0.0 - Cloudy 10 - - - -
30/08:30pm 12.4 ENE 6 8 1016.3 - 0.0 - Partly cloudy 10 - - - -
30/08:00pm 12.5 E 3 7 1016.5 - 0.0 - Partly cloudy 10 - - - -
30/07:30pm 12.5 NE 9 10 1017.0 - 0.0 - Partly cloudy 10 - - - -
30/07:00pm 12.7 NE 11 13 1017.0 - 0.0 - Cloudy 10 - - - -
30/06:30pm 13.2 NE 10 14 1017.3 - 0.0 - Cloudy 10 - - - -
30/06:00pm 13.3 NE 9 12 1017.6 - 0.0 - Mostly cloudy 10 - - - -
30/05:30pm 13.7 NNE 11 17 1018.1 - 0.0 - Cloudy 10 - - - -
30/05:00pm 14.0 NNE 8 11 1017.8 - 0.0 - Partly cloudy 10 - - - -
30/04:30pm 14.7 NNE 7 9 1018.0 - 0.0 - Partly cloudy 10 - - - -
30/04:00pm 14.8 S 3 6 1018.1 - 0.0 - Partly cloudy 10 - - - -
30/03:30pm 15.1 ESE 3 7 1018.5 - 0.0 - Partly cloudy 10 - - - -
30/03:00pm 15.4 WNW 5 7 1018.7 - 0.0 - Cloudy 10 - - - -
30/02:30pm 15.3 ENE 6 14 1019.0 - 0.0 - Cloudy 10 - - - -
30/02:00pm 15.0 N 10 21 1019.0 - 0.0 - Partly cloudy 10 - - - -
30/01:30pm 15.2 NE 17 23 1018.1 - 0.0 - Partly cloudy 10 - - - -
30/01:00pm 15.4 NE 18 27 1018.7 - 0.0 - Partly cloudy 10 - - - -
30/12:30pm 16.0 NE 18 29 1019.6 - 0.0 - - 10 - - - -
30/12:19pm 16.0 NE 17 28 1019.5 - 0.0 - - 10 - - - -
30/12:00pm 16.1 NE 18 25 1020.0 - 0.0 - Mostly cloudy 10 - - - -
30/11:45am 16.4 NE 20 30 1020.2 - 0.0 - - 10 - - - -
30/11:30am 16.4 NE 22 29 1020.4 - 0.0 - - 10 - - - -
30/11:12am 16.5 NE 19 29 1020.5 - 0.0 - - 10 - - - -
30/11:00am 16.5 NE 19 27 1020.7 - 0.0 - - 10 - - - -
30/10:30am 15.7 ENE 12 18 1021.3 - 0.0 - Partly cloudy 10 - - - -
30/10:08am 15.4 ENE 14 20 1021.5 - 0.0 - Partly cloudy 10 - - - -
30/10:00am 15.2 ENE 13 18 1021.9 - 0.0 - Partly cloudy 10 - - - -
30/09:49am 14.9 NE 11 19 1022.4 - 0.0 - Partly cloudy 10 - - - -
30/09:30am 14.6 ENE 7 10 1022.6 - 0.0 - Partly cloudy 10 - - - -
30/09:00am 14.1 ESE 6 10 1022.7 - 0.2 - Cloudy 10 - - - -
30/08:30am 12.8 E 8 11 1023.4 - 0.2 - Partly cloudy 10 - - - -
30/08:00am 12.4 E 7 10 1023.7 - 0.2 - - 10 - - - -
30/07:30am 11.6 E 7 10 1023.6 - 0.2 - - 10 - - - -
30/07:00am 11.1 ESE 7 10 1023.4 - 0.2 - - 10 - - - -
30/06:30am 10.6 E 7 8 1023.4 - 0.2 - - 10 - - - -
30/06:00am 10.3 ESE 7 9 1023.2 - 0.2 - - 10 - - - -
30/05:30am 10.2 ESE 7 9 1023.1 - 0.2 - - 10 - - - -
30/05:00am 10.4 E 7 9 1023.0 - 0.2 - - 10 - - - -
30/04:30am 10.7 E 7 8 1023.3 - 0.2 - - 10 - - - -
30/04:00am 9.2 ENE 7 8 1023.0 - 0.2 - - 10 - - - -
30/03:30am 10.4 ENE 8 9 1023.1 - 0.2 - - 10 - - - -
30/03:00am 10.1 ENE 6 10 1023.3 - 0.2 Recent precip. - 10 - - - -
30/02:30am 8.2 E 2 5 1023.7 - 0.2 - - 10 - - - -
30/02:00am 7.4 E 5 7 1023.9 - 0.0 - - 10 - - - -
30/01:30am 8.3 E 5 6 1024.4 - 0.0 - - 10 - - - -
30/01:00am 8.6 E 2 6 1024.7 - 0.0 - - 10 - - - -
30/12:30am 7.3 E 6 7 1024.8 - 0.0 - - - - - - -
30/12:00am 5.0 E 4 5 1024.9 - 0.0 - - 10 - - - -
 
Date/Time
EST
Temp
°C
Wind Pressure Rain since
9am
mm
Weather Cloud Vis
km
Sea
Height
m
Swell
Dir  Spd
kts
Gust
kts
hPa Trend Height
m
Period
s
Dir
29/11:30pm 6.2 ENE 3 4 1025.0 - 0.0 - - 10 - - - -
29/11:00pm 6.1 ENE 5 6 1024.7 - 0.0 - - - - - - -
29/10:30pm 6.3 ENE 5 6 1025.1 - 0.0 - - 10 - - - -
29/10:00pm 6.3 NE 6 6 1025.1 - 0.0 - - 10 - - - -
29/09:30pm 6.2 ENE 5 6 1025.1 - 0.0 - - 10 - - - -
29/09:00pm 5.9 ENE 5 6 1024.9 - 0.0 - - 10 - - - -
29/08:30pm 6.3 ENE 6 6 1024.8 - 0.0 - - 10 - - - -
29/08:00pm 6.2 ENE 6 7 1024.9 - 0.0 - - 10 - - - -
29/07:30pm 6.3 NE 5 6 1024.8 - 0.0 - - 10 - - - -
29/07:00pm 7.5 NE 5 6 1024.7 - 0.0 - - 10 - - - -
29/06:30pm 7.7 NE 3 5 1024.6 - 0.0 - - 10 - - - -
29/06:00pm 9.7 CALM 0 0 1024.4 - 0.0 - - 10 - - - -
29/05:30pm 11.6 SW 1 3 1024.1 - 0.0 - - 10 - - - -
29/05:00pm 12.6 SW 5 6 1023.9 - 0.0 - - 10 - - - -
29/04:30pm 13.1 WSW 6 7 1023.9 - 0.0 - - 10 - - - -
29/04:00pm 13.4 WSW 6 9 1023.7 - 0.0 - - 10 - - - -
29/03:30pm 13.3 WSW 7 9 1023.6 - 0.0 - - 10 - - - -
29/03:00pm 13.3 W 9 11 1023.7 - 0.0 - - 10 - - - -
29/02:30pm 13.7 WSW 9 12 1023.6 - 0.0 - - 10 - - - -
29/02:00pm 13.7 W 10 14 1023.7 - 0.0 - - 10 - - - -
29/01:30pm 13.6 W 8 14 1023.8 - 0.0 - - 10 - - - -
29/01:00pm 13.5 W 8 10 1024.1 - 0.0 - Partly cloudy 10 - - - -
29/12:55pm 13.0 W 9 10 1024.1 - 0.0 - Partly cloudy 10 - - - -
29/12:41pm 12.9 W 9 11 1024.2 - 0.0 - Partly cloudy 10 - - - -
29/12:30pm 13.0 W 10 13 1024.4 - 0.0 - Partly cloudy 10 - - - -
29/12:00pm 12.7 W 9 12 1024.8 - 0.0 - Clear 10 - - - -
29/11:30am 13.1 WSW 8 10 1024.9 - 0.0 - Partly cloudy 10 - - - -
29/11:03am 12.9 WSW 6 8 1025.0 - 0.0 - Partly cloudy 10 - - - -
29/11:00am 12.7 WSW 6 9 1025.0 - 0.0 - Partly cloudy 10 - - - -
29/10:38am 12.2 SW 4 6 1025.1 - 0.0 - Partly cloudy 10 - - - -
29/10:30am 12.2 SW 4 6 1025.1 - 0.0 - Partly cloudy 10 - - - -
29/10:00am 12.0 SW 5 5 1025.3 - 0.0 - Partly cloudy 10 - - - -
29/09:30am 11.4 WSW 5 6 1025.4 - 0.0 - Cloudy 10 - - - -
29/09:00am 10.6 CALM 0 2 1025.2 - 0.0 - Mostly cloudy 10 - - - -
29/08:30am 8.1 NE 5 6 1025.0 - 0.0 - Cloudy - - - - -
29/08:00am 4.7 ENE 5 7 1024.8 - 0.0 - Partly cloudy - - - - -
29/07:30am 2.6 NE 6 7 1024.8 - 0.0 - - - - - - -
29/07:00am 0.8 NE 6 7 1024.4 - 0.0 - - - - - - -
29/06:30am 0.7 NE 6 8 1023.9 - 0.0 - - - - - - -
29/06:00am 0.8 NE 6 7 1023.7 - 0.0 - - 10 - - - -
29/05:30am 1.2 NE 7 7 1023.5 - 0.0 - - 10 - - - -
29/05:00am 1.7 NE 6 7 1023.3 - 0.0 - Partly cloudy 10 - - - -
29/04:30am 1.5 NE 7 8 1023.0 - 0.0 - Partly cloudy - - - - -
29/04:00am 1.1 NE 6 7 1022.8 - 0.0 - - 10 - - - -
29/03:30am 0.9 ENE 7 8 1022.6 - 0.0 - - 10 - - - -
29/03:00am 1.4 NE 7 8 1022.6 - 0.0 - - - - - - -
29/02:30am 1.0 NE 6 7 1022.6 - 0.0 - - 10 - - - -
29/02:00am 1.5 NE 6 8 1022.7 - 0.0 - - 10 - - - -
29/01:30am 1.6 NE 6 8 1022.7 - 0.0 - - 10 - - - -
29/01:00am 1.5 NE 6 8 1022.5 - 0.0 - - 10 - - - -
29/12:30am 1.8 ENE 6 7 1022.3 - 0.0 - - 10 - - - -
29/12:00am 1.8 NE 6 7 1022.0 - 0.0 - Mostly clear 10 - - - -
 
Date/Time
EST
Temp
°C
Wind Pressure Rain since
9am
mm
Weather Cloud Vis
km
Sea
Height
m
Swell
Dir  Spd
kts
Gust
kts
hPa Trend Height
m
Period
s
Dir
28/11:30pm 2.9 N 3 5 1021.9 - 0.0 - - 10 - - - -
28/11:00pm 3.4 WSW 9 12 1021.6 - 0.0 - Partly cloudy 10 - - - -
28/10:55pm 4.1 W 9 12 1021.6 - 0.0 - Partly cloudy 10 - - - -
28/10:30pm 9.1 WSW 11 14 1021.7 - 0.0 - - 10 - - - -
28/10:00pm 9.5 WSW 12 15 1021.5 - 0.0 - - 10 - - - -
28/09:30pm 9.4 WSW 12 15 1021.4 - 0.0 - Partly cloudy 10 - - - -
28/09:00pm 9.2 WSW 13 17 1021.1 - 0.0 - - 10 - - - -
28/08:30pm 9.4 WSW 13 15 1020.7 - 0.0 - - 10 - - - -
28/08:00pm 9.4 W 14 18 1020.5 - 0.0 - - 10 - - - -
28/07:30pm 9.5 WSW 15 18 1020.2 - 0.0 - - 10 - - - -
28/07:00pm 9.5 WSW 15 18 1020.1 - 0.0 - - 10 - - - -
28/06:30pm 9.6 W 15 17 1019.8 - 0.0 - Partly cloudy 10 - - - -
28/06:00pm 9.5 W 15 18 1019.5 - 0.0 - Partly cloudy 10 - - - -
28/05:30pm 9.8 WSW 16 19 1019.2 - 0.0 - Partly cloudy 10 - - - -
28/05:00pm 10.2 WSW 15 18 1019.0 - 0.0 - Partly cloudy 10 - - - -
28/04:30pm 10.7 WSW 17 21 1018.7 - 0.0 - - 10 - - - -
28/04:00pm 10.8 WSW 17 20 1018.3 - 0.0 - - 10 - - - -
28/03:30pm 11.1 WSW 16 20 1018.3 - 0.0 - Partly cloudy 10 - - - -
28/03:00pm 11.4 WSW 16 19 1018.4 - 0.0 - Mostly clear 10 - - - -
28/02:30pm 11.5 WSW 17 20 1018.3 - 0.0 - - 10 - - - -
28/02:00pm 11.8 WSW 17 20 1018.2 - 0.0 - Partly cloudy 10 - - - -
28/01:30pm 11.9 WSW 13 16 1018.1 - 0.0 - Partly cloudy 10 - - - -
28/01:00pm 11.7 SW 13 17 1018.3 - 0.0 - - 10 - - - -
28/12:30pm 11.7 WSW 18 22 1018.3 - 0.0 - - 10 - - - -
28/12:00pm 11.5 WSW 17 21 1018.3 - 0.0 - Mostly clear 10 - - - -
28/11:30am 12.0 WSW 19 23 1018.2 - 0.0 - Partly cloudy 10 - - - -
28/11:00am 11.9 SW 18 22 1018.1 - 0.0 - Partly cloudy 10 - - - -
28/10:30am 11.4 SW 19 22 1018.2 - 0.0 - Partly cloudy 10 - - - -
28/10:00am 11.2 WSW 21 26 1017.7 - 0.0 - - 10 - - - -
28/09:30am 11.2 WSW 22 28 1017.3 - 0.0 - - 10 - - - -
28/09:00am 11.2 WSW 22 27 1016.8 - 0.4 - - 10 - - - -
28/08:30am 10.9 WSW 23 29 1016.3 - 0.4 - Partly cloudy 10 - - - -
28/08:00am 11.0 W 24 29 1015.9 - 0.4 - Partly cloudy 10 - - - -
28/07:30am 10.7 W 25 30 1015.4 - 0.4 - Partly cloudy 10 - - - -
28/07:00am 10.9 W 23 29 1014.8 - 0.4 - Partly cloudy 10 - - - -
28/06:30am 10.9 W 21 27 1014.1 - 0.4 - Partly cloudy 10 - - - -
28/06:01am 11.1 W 19 29 1013.7 - 0.4 - Partly cloudy 10 - - - -
28/06:00am 11.1 W 19 25 1013.7 - 0.4 - Cloudy 10 - - - -
28/05:40am 11.2 WNW 20 30 1013.4 - 0.4 - Partly cloudy 9 - - - -
28/05:30am 11.2 WNW 19 25 1013.3 - 0.4 - Partly cloudy 10 - - - -
28/05:10am 11.1 WNW 22 29 1013.3 - 0.4 - Partly cloudy 10 - - - -
28/05:00am 11.0 WNW 22 31 1013.2 - 0.4 - Partly cloudy 10 - - - -
28/04:30am 11.5 WNW 21 31 1012.9 - 0.4 - Partly cloudy 6 - - - -
28/04:04am 11.4 WNW 20 32 1012.7 - 0.2 - Partly cloudy 10 - - - -
28/04:00am 11.4 WNW 20 27 1012.7 - 0.2 - Partly cloudy 9 - - - -
28/03:43am 12.3 WNW 23 33 1012.7 - 0.0 - Partly cloudy 10 - - - -
28/03:30am 12.3 WNW 23 32 1012.7 - 0.0 - Partly cloudy 10 - - - -

Other Formats:

Comma delimited format used in spreadsheet applications
http://www.bom.gov.au/fwo/IDV60701/IDV60701.94980.axf

JavaScript Object Notation format (JSON) in row-major order
http://www.bom.gov.au/fwo/IDV60701/IDV60701.94980.json